Time;durP1;ratioP1;P1;durP2;ratioP2;P2;SDS_P1;SDS_P2;PMS_P1;PMS_P2;Temp;Humidity;BMP_temperature;BMP_pressure;BME280_temperature;BME280_humidity;BME280_pressure;Samples;Min_cycle;Max_cycle;Signal;HPM_P1;HPM_P2
2022/01/21 00:00:22;;;;;;;10.57;2.95;;;3.20;91.00;;;;;;6158502;23;20028;-74
2022/01/21 00:02:47;;;;;;;16.42;3.55;;;3.20;91.00;;;;;;6133781;23;20471;-79
2022/01/21 00:05:13;;;;;;;11.65;2.55;;;3.20;91.10;;;;;;6185006;23;20021;-74
2022/01/21 00:07:39;;;;;;;11.43;2.95;;;3.20;91.10;;;;;;6184536;23;20024;-77
2022/01/21 00:10:05;;;;;;;15.02;3.88;;;3.20;91.10;;;;;;6133460;23;20025;-75
2022/01/21 00:12:32;;;;;;;10.07;3.10;;;3.20;91.10;;;;;;6134123;23;20096;-74
2022/01/21 00:15:00;;;;;;;11.70;2.28;;;3.20;91.20;;;;;;6184539;23;20013;-74
2022/01/21 00:17:25;;;;;;;15.73;3.38;;;3.20;91.20;;;;;;6184518;23;20023;-74
2022/01/21 00:30:03;;;;;;;11.77;2.92;;;3.20;91.20;;;;;;6133192;23;20088;-75
2022/01/21 00:30:49;;;;;;;13.32;2.70;;;3.20;91.30;;;;;;6158567;23;20032;-74
2022/01/21 00:33:14;;;;;;;10.75;2.33;;;3.20;91.30;;;;;;6159273;23;20017;-74
2022/01/21 00:35:40;;;;;;;9.95;2.72;;;3.30;91.70;;;;;;6160460;23;20017;-74
2022/01/21 00:38:06;;;;;;;11.95;2.75;;;3.30;91.40;;;;;;6160136;23;20474;-74
2022/01/21 00:40:33;;;;;;;12.23;2.15;;;3.20;91.40;;;;;;6185289;23;20459;-74
2022/01/21 00:43:11;;;;;;;13.77;3.03;;;3.30;91.40;;;;;;6186450;23;20056;-74
2022/01/21 00:45:37;;;;;;;13.32;2.78;;;3.30;91.50;;;;;;6138589;23;20338;-74
2022/01/21 00:48:03;;;;;;;13.70;3.38;;;3.30;91.50;;;;;;6159385;23;20052;-75
2022/01/21 00:50:29;;;;;;;12.85;2.58;;;3.30;91.50;;;;;;6160305;23;20088;-74
2022/01/21 00:52:54;;;;;;;9.95;2.42;;;3.40;91.60;;;;;;6135598;23;20072;-83
2022/01/21 00:55:20;;;;;;;11.85;2.28;;;3.30;91.50;;;;;;6185079;23;20017;-74
2022/01/21 00:57:46;;;;;;;9.15;2.63;;;3.40;91.60;;;;;;6160502;23;20148;-74
2022/01/21 01:00:12;;;;;;;8.32;2.15;;;3.30;91.60;;;;;;6135406;23;20134;-74
2022/01/21 01:02:38;;;;;;;8.68;1.92;;;3.40;91.60;;;;;;6186441;23;20459;-74
2022/01/21 01:05:04;;;;;;;8.38;2.25;;;3.40;91.60;;;;;;6159926;23;20072;-74
2022/01/21 01:07:29;;;;;;;6.72;2.47;;;3.40;91.60;;;;;;6111281;23;20491;-74
2022/01/21 01:09:57;;;;;;;9.07;2.15;;;3.30;91.60;;;;;;6135008;23;20013;-74
2022/01/21 01:20:35;;;;;;;12.25;1.98;;;3.40;91.70;;;;;;6159897;23;20087;-74
2022/01/21 01:23:24;;;;;;;9.43;1.95;;;3.40;91.70;;;;;;6135204;23;20379;-75
2022/01/21 01:28:34;;;;;;;11.40;2.38;;;3.40;91.70;;;;;;6186204;23;20032;-74
2022/01/21 01:31:00;;;;;;;10.88;2.13;;;3.30;91.60;;;;;;6135431;23;20021;-74
2022/01/21 01:33:34;;;;;;;9.30;1.88;;;3.30;91.70;;;;;;6135670;23;20111;-74
2022/01/21 01:36:00;;;;;;;10.07;2.58;;;3.30;91.70;;;;;;6160089;23;20021;-74
2022/01/21 01:41:06;;;;;;;10.77;2.00;;;3.30;91.70;;;;;;6159807;23;20031;-75
2022/01/21 01:51:26;;;;;;;9.30;2.60;;;3.30;91.70;;;;;;6163561;23;20017;-75
2022/01/21 01:54:09;;;;;;;12.57;2.25;;;3.30;91.70;;;;;;6135627;23;20009;-74
2022/01/21 01:56:39;;;;;;;7.75;1.52;;;3.30;91.80;;;;;;6163169;23;20088;-75
2022/01/21 01:59:04;;;;;;;10.95;2.40;;;3.30;91.80;;;;;;6135510;23;20080;-78
2022/01/21 02:01:30;;;;;;;10.85;2.05;;;3.30;91.80;;;;;;6159680;23;20013;-74
2022/01/21 02:03:56;;;;;;;5.80;1.48;;;3.30;91.80;;;;;;6134856;23;20021;-74
2022/01/21 02:06:22;;;;;;;8.05;1.95;;;3.40;91.90;;;;;;6185980;23;20021;-74
2022/01/21 02:08:47;;;;;;;4.45;1.98;;;3.30;91.80;;;;;;6159501;23;20021;-74
2022/01/21 02:11:13;;;;;;;10.88;2.35;;;3.40;91.90;;;;;;6184128;23;20447;-75
2022/01/21 02:13:43;;;;;;;7.63;1.90;;;3.40;91.90;;;;;;6134738;23;20063;-74
2022/01/21 02:16:19;;;;;;;10.55;2.30;;;3.40;91.90;;;;;;6135719;23;20313;-74
2022/01/21 02:23:55;;;;;;;11.77;2.63;;;3.40;91.90;;;;;;6185302;23;20351;-74
2022/01/21 02:26:21;;;;;;;10.00;2.15;;;3.40;92.00;;;;;;6134682;23;20017;-74
2022/01/21 02:28:47;;;;;;;15.13;2.65;;;3.40;91.90;;;;;;6134157;23;20344;-74
2022/01/21 02:31:12;;;;;;;9.75;2.03;;;3.40;92.00;;;;;;6158959;23;20016;-75
2022/01/21 02:33:38;;;;;;;11.07;2.20;;;3.40;92.00;;;;;;6134860;23;20017;-74
2022/01/21 02:36:04;;;;;;;12.18;2.30;;;3.30;91.90;;;;;;6185626;23;20021;-74
2022/01/21 02:38:29;;;;;;;9.05;1.88;;;3.30;92.10;;;;;;6159046;23;20027;-75
2022/01/21 02:40:55;;;;;;;9.93;1.95;;;3.30;92.00;;;;;;6185280;23;20044;-74
2022/01/21 02:43:21;;;;;;;13.27;2.35;;;3.20;91.90;;;;;;6158524;23;20017;-75
2022/01/21 02:45:47;;;;;;;7.35;2.13;;;3.30;92.00;;;;;;6159439;23;20021;-74
2022/01/21 02:48:13;;;;;;;10.18;1.90;;;3.20;92.00;;;;;;6185356;23;20451;-75
2022/01/21 02:50:39;;;;;;;11.40;2.35;;;3.20;92.00;;;;;;6159294;23;20021;-74
2022/01/21 02:53:11;;;;;;;9.52;1.85;;;3.20;92.00;;;;;;6110150;23;20035;-74
2022/01/21 02:55:37;;;;;;;11.77;2.28;;;3.20;92.10;;;;;;6184979;23;20017;-75
2022/01/21 02:58:03;;;;;;;11.07;1.88;;;3.20;92.10;;;;;;6185386;23;20017;-73
2022/01/21 03:00:28;;;;;;;10.43;1.52;;;3.20;92.10;;;;;;6158754;23;20028;-74
2022/01/21 03:02:54;;;;;;;7.22;1.70;;;3.20;92.10;;;;;;6185272;23;20017;-74
2022/01/21 03:05:20;;;;;;;11.52;2.00;;;3.20;92.20;;;;;;6184905;23;20321;-74
2022/01/21 03:07:46;;;;;;;10.55;2.80;;;3.20;92.20;;;;;;6134273;23;20047;-74
2022/01/21 03:10:12;;;;;;;8.77;2.25;;;3.20;92.20;;;;;;6134757;23;20020;-74
2022/01/21 03:12:38;;;;;;;7.85;2.13;;;3.20;92.20;;;;;;6158734;23;20025;-74
2022/01/21 03:15:05;;;;;;;11.68;1.80;;;3.20;92.20;;;;;;6109947;23;20054;-74
2022/01/21 03:17:30;;;;;;;8.25;1.92;;;3.30;92.20;;;;;;6158786;23;20088;-74
2022/01/21 03:19:56;;;;;;;9.45;2.08;;;3.20;92.20;;;;;;6159180;23;20494;-74
2022/01/21 03:22:22;;;;;;;7.32;2.00;;;3.20;92.20;;;;;;6134114;23;20413;-75
2022/01/21 03:24:47;;;;;;;9.45;1.77;;;3.20;92.20;;;;;;6183711;23;20466;-74
2022/01/21 03:27:13;;;;;;;9.35;1.80;;;3.20;92.20;;;;;;6185228;23;20079;-74
2022/01/21 03:29:39;;;;;;;9.10;2.13;;;3.20;92.20;;;;;;6158688;23;20444;-74
2022/01/21 03:32:05;;;;;;;6.97;1.77;;;3.20;92.20;;;;;;6158518;23;20013;-74
2022/01/21 03:34:30;;;;;;;7.78;1.52;;;3.20;92.30;;;;;;6158532;23;20027;-74
2022/01/21 03:36:56;;;;;;;5.80;1.40;;;3.20;92.30;;;;;;6158945;23;20052;-74
2022/01/21 03:39:22;;;;;;;7.47;1.75;;;3.20;92.30;;;;;;6158795;23;20078;-75
2022/01/21 03:41:48;;;;;;;8.82;2.55;;;3.20;92.30;;;;;;6134066;23;20017;-74
2022/01/21 03:44:13;;;;;;;5.25;1.75;;;3.30;92.40;;;;;;6134321;23;20053;-74
2022/01/21 03:46:39;;;;;;;5.30;1.55;;;3.20;92.40;;;;;;6133579;23;20056;-74
2022/01/21 03:49:07;;;;;;;9.95;1.85;;;3.20;92.40;;;;;;6134329;23;20024;-74
2022/01/21 03:51:33;;;;;;;10.15;1.85;;;3.20;92.40;;;;;;6158330;23;20017;-75
2022/01/21 03:53:58;;;;;;;5.93;1.65;;;3.30;92.40;;;;;;6158783;23;20028;-74
2022/01/21 03:56:24;;;;;;;7.65;1.48;;;3.20;92.50;;;;;;6184894;23;20021;-74
2022/01/21 03:58:50;;;;;;;7.18;2.00;;;3.20;92.50;;;;;;6134342;23;20047;-74
2022/01/21 04:01:17;;;;;;;6.22;1.83;;;3.30;92.50;;;;;;6185193;23;20097;-74
2022/01/21 04:03:43;;;;;;;8.00;1.75;;;3.30;92.50;;;;;;6134104;23;20387;-75
2022/01/21 04:06:08;;;;;;;10.45;2.00;;;3.30;92.50;;;;;;6158651;23;20025;-74
2022/01/21 04:08:34;;;;;;;7.68;2.72;;;3.30;92.60;;;;;;6159695;23;20017;-73
2022/01/21 04:11:00;;;;;;;7.95;2.10;;;3.30;92.60;;;;;;6160203;23;20017;-73
2022/01/21 04:13:26;;;;;;;6.03;1.75;;;3.30;92.50;;;;;;6160398;23;20095;-75
2022/01/21 04:15:53;;;;;;;8.32;2.53;;;3.30;92.60;;;;;;6160442;23;20503;-73
2022/01/21 04:18:19;;;;;;;13.13;2.70;;;3.30;92.60;;;;;;6160836;23;20021;-74
2022/01/21 04:20:46;;;;;;;5.28;1.88;;;3.30;92.60;;;;;;6135717;23;20025;-74
2022/01/21 04:23:12;;;;;;;11.57;2.22;;;3.20;92.60;;;;;;6160254;23;20079;-74
2022/01/21 04:25:38;;;;;;;13.02;3.10;;;3.20;92.60;;;;;;6134913;23;20024;-73
2022/01/21 04:28:04;;;;;;;6.93;1.48;;;3.20;92.60;;;;;;6136129;23;20017;-74
2022/01/21 04:30:30;;;;;;;7.20;1.50;;;3.20;92.60;;;;;;6160227;23;20013;-74
2022/01/21 04:32:55;;;;;;;10.18;2.00;;;3.20;92.60;;;;;;6160547;23;20013;-74
2022/01/21 04:35:21;;;;;;;10.90;2.05;;;3.20;92.60;;;;;;6160484;23;20028;-74
2022/01/21 04:37:55;;;;;;;8.82;1.73;;;3.10;92.60;;;;;;6160382;23;20406;-75
2022/01/21 04:40:23;;;;;;;10.20;1.85;;;3.10;92.60;;;;;;6186792;23;20017;-73
2022/01/21 04:48:17;;;;;;;7.18;1.58;;;3.10;92.60;;;;;;6139030;23;20455;-75
2022/01/21 04:50:58;;;;;;;6.68;1.58;;;3.10;92.60;;;;;;6160100;23;20016;-74
2022/01/21 04:53:25;;;;;;;7.63;1.98;;;3.10;92.60;;;;;;6138764;23;20071;-74
2022/01/21 04:55:51;;;;;;;11.00;2.25;;;3.10;92.70;;;;;;6184722;23;20026;-74
2022/01/21 04:58:16;;;;;;;9.27;2.05;;;3.10;92.70;;;;;;6160331;23;20017;-74
2022/01/21 05:00:43;;;;;;;8.80;2.03;;;3.10;92.70;;;;;;6135287;23;20017;-75
2022/01/21 05:03:10;;;;;;;7.43;1.58;;;3.10;92.70;;;;;;6160554;23;20088;-74
2022/01/21 05:05:36;;;;;;;9.07;1.88;;;3.10;92.70;;;;;;6159838;23;20048;-73
2022/01/21 05:08:06;;;;;;;9.65;2.05;;;3.00;92.70;;;;;;6184916;23;20471;-73
2022/01/21 05:10:31;;;;;;;12.55;1.67;;;3.10;92.70;;;;;;6159586;23;20075;-76
2022/01/21 05:18:25;;;;;;;8.43;2.90;;;3.10;92.70;;;;;;6164286;23;20105;-75
2022/01/21 05:20:51;;;;;;;7.68;1.55;;;3.10;92.70;;;;;;6135223;23;20077;-75
2022/01/21 05:23:16;;;;;;;8.40;1.55;;;3.10;92.70;;;;;;6135648;23;20336;-74
2022/01/21 05:25:42;;;;;;;4.90;1.40;;;3.10;92.70;;;;;;6134982;23;20443;-74
2022/01/21 05:28:08;;;;;;;6.55;1.77;;;3.10;92.70;;;;;;6159963;23;20264;-74
2022/01/21 05:30:33;;;;;;;10.82;1.67;;;3.10;92.70;;;;;;6134892;23;20096;-82
2022/01/21 05:32:59;;;;;;;7.78;1.60;;;3.10;92.70;;;;;;6186456;23;20108;-74
2022/01/21 05:35:28;;;;;;;5.68;1.60;;;3.10;92.70;;;;;;6135386;23;20095;-74
2022/01/21 05:37:53;;;;;;;11.95;1.92;;;3.00;92.70;;;;;;6110597;23;20017;-74
2022/01/21 05:40:20;;;;;;;12.70;2.05;;;3.10;92.70;;;;;;6159879;23;20013;-74
2022/01/21 05:42:46;;;;;;;12.82;3.28;;;3.00;92.70;;;;;;6185868;23;20017;-74
2022/01/21 05:48:03;;;;;;;6.47;1.38;;;3.00;92.70;;;;;;6120127;23;20024;-74
2022/01/21 05:50:29;;;;;;;9.73;1.75;;;3.00;92.70;;;;;;6135111;23;20049;-74
2022/01/21 05:52:56;;;;;;;6.60;1.33;;;3.00;92.70;;;;;;6110531;23;20017;-74
2022/01/21 05:55:21;;;;;;;8.77;2.03;;;2.90;92.70;;;;;;6184463;23;20024;-74
2022/01/21 05:57:47;;;;;;;10.48;1.45;;;3.00;92.70;;;;;;6159459;23;20017;-74
2022/01/21 06:00:13;;;;;;;6.53;1.83;;;3.00;92.70;;;;;;6185394;23;20044;-74
2022/01/21 06:02:39;;;;;;;9.60;1.77;;;2.90;92.70;;;;;;6159242;23;20416;-75
2022/01/21 06:05:05;;;;;;;14.40;1.80;;;2.90;92.70;;;;;;6159285;23;20021;-74
2022/01/21 06:07:31;;;;;;;8.25;1.88;;;2.90;92.80;;;;;;6158829;23;20017;-74
2022/01/21 06:09:56;;;;;;;9.15;1.75;;;2.90;92.80;;;;;;6134171;23;20067;-74
2022/01/21 06:12:22;;;;;;;10.40;1.70;;;2.90;92.80;;;;;;6159435;23;20028;-74
2022/01/21 06:14:48;;;;;;;5.68;1.73;;;2.90;92.80;;;;;;6134403;23;20028;-74
2022/01/21 06:17:14;;;;;;;7.60;1.70;;;2.90;92.80;;;;;;6185422;23;20052;-74
2022/01/21 06:19:40;;;;;;;8.63;1.70;;;2.90;92.80;;;;;;6159341;23;20048;-76
2022/01/21 06:22:06;;;;;;;6.22;1.75;;;3.00;92.90;;;;;;6158590;23;20013;-74
2022/01/21 06:24:31;;;;;;;6.05;1.40;;;3.00;92.90;;;;;;6157603;23;20051;-76
2022/01/21 06:27:01;;;;;;;9.70;1.85;;;3.00;92.90;;;;;;6133405;23;20017;-74
2022/01/21 06:29:27;;;;;;;7.47;2.00;;;3.00;92.90;;;;;;6159790;23;20032;-76
2022/01/21 06:31:52;;;;;;;7.07;1.27;;;3.00;92.90;;;;;;6133748;23;20017;-75
2022/01/21 06:34:18;;;;;;;5.93;1.70;;;3.00;92.90;;;;;;6133835;23;20056;-75
2022/01/21 06:36:44;;;;;;;9.40;1.90;;;3.00;92.90;;;;;;6184846;23;20028;-75
2022/01/21 06:39:10;;;;;;;8.10;2.08;;;3.00;92.90;;;;;;6134297;23;20017;-74
2022/01/21 06:41:35;;;;;;;14.27;3.05;;;3.00;93.00;;;;;;6159108;23;20343;-74
2022/01/21 06:44:02;;;;;;;10.75;2.38;;;3.00;93.00;;;;;;6157826;23;20021;-73
2022/01/21 06:46:27;;;;;;;6.45;1.80;;;3.00;93.00;;;;;;6185227;23;20020;-74
2022/01/21 06:48:53;;;;;;;10.90;2.83;;;3.00;93.00;;;;;;6158816;23;20458;-74
2022/01/21 06:51:18;;;;;;;5.88;1.85;;;3.00;93.00;;;;;;6159431;23;20020;-74
2022/01/21 06:53:44;;;;;;;7.55;2.17;;;3.00;93.00;;;;;;6185898;23;20019;-81
2022/01/21 06:56:10;;;;;;;5.18;1.48;;;3.00;93.00;;;;;;6158734;23;20017;-71
2022/01/21 06:58:35;;;;;;;9.57;1.85;;;3.00;93.00;;;;;;6185266;23;20048;-72
2022/01/21 07:01:01;;;;;;;5.85;1.75;;;3.00;93.10;;;;;;6155582;23;20013;-72
2022/01/21 07:03:27;;;;;;;7.20;2.25;;;3.00;93.00;;;;;;6158421;23;20017;-73
2022/01/21 07:05:52;;;;;;;7.95;2.58;;;3.00;93.00;;;;;;6157873;23;20048;-72
2022/01/21 07:08:18;;;;;;;12.23;1.98;;;3.00;93.10;;;;;;6158025;23;20096;-73
2022/01/21 07:10:45;;;;;;;7.32;2.15;;;3.00;93.00;;;;;;6182939;23;20435;-72
2022/01/21 07:13:11;;;;;;;7.70;2.20;;;3.10;93.10;;;;;;6184651;23;20017;-74
2022/01/21 07:15:37;;;;;;;9.88;1.48;;;3.00;93.00;;;;;;6158471;23;20044;-76
2022/01/21 07:18:02;;;;;;;9.38;2.65;;;2.90;93.00;;;;;;6156585;23;20466;-73
2022/01/21 07:20:28;;;;;;;9.88;1.60;;;3.30;94.10;;;;;;6158072;23;20334;-72
2022/01/21 07:22:54;;;;;;;6.32;1.88;;;3.40;93.50;;;;;;6157712;23;20019;-72
2022/01/21 07:25:19;;;;;;;8.75;2.55;;;3.30;92.90;;;;;;6109177;23;20020;-72
2022/01/21 07:27:45;;;;;;;11.77;2.30;;;3.30;92.90;;;;;;6158427;23;20465;-73
2022/01/21 07:30:12;;;;;;;8.73;2.08;;;3.30;92.90;;;;;;6184856;23;20020;-73
2022/01/21 07:32:39;;;;;;;10.13;1.90;;;3.20;92.90;;;;;;6159028;23;20020;-72
2022/01/21 07:35:07;;;;;;;7.30;2.22;;;3.20;92.90;;;;;;6133598;23;20455;-73
2022/01/21 07:37:32;;;;;;;10.65;2.10;;;3.20;93.00;;;;;;6159288;23;20013;-71
2022/01/21 07:39:58;;;;;;;10.95;1.88;;;3.10;93.00;;;;;;6134099;23;20056;-72
2022/01/21 07:42:24;;;;;;;8.00;1.30;;;3.10;93.00;;;;;;6134732;23;20016;-71
2022/01/21 07:44:50;;;;;;;8.23;2.20;;;3.10;93.00;;;;;;6161065;23;20052;-71
2022/01/21 07:47:15;;;;;;;6.85;1.90;;;3.10;93.00;;;;;;6186536;23;20017;-71
2022/01/21 07:49:42;;;;;;;4.93;1.35;;;3.10;93.00;;;;;;6185998;23;20051;-72
2022/01/21 07:52:08;;;;;;;7.10;1.55;;;3.10;93.10;;;;;;6160973;23;20013;-72
2022/01/21 07:54:34;;;;;;;10.73;2.40;;;3.10;93.00;;;;;;6160972;23;20024;-73
2022/01/21 07:57:02;;;;;;;7.53;2.38;;;3.10;93.00;;;;;;6111680;23;20084;-74
2022/01/21 07:59:27;;;;;;;9.30;1.55;;;3.00;93.00;;;;;;6161830;23;20351;-71
2022/01/21 08:01:53;;;;;;;6.65;2.20;;;3.00;93.00;;;;;;6161071;23;20013;-71
2022/01/21 08:04:19;;;;;;;7.97;1.50;;;3.00;93.00;;;;;;6136357;23;20051;-71
2022/01/21 08:06:45;;;;;;;9.48;1.83;;;3.00;93.00;;;;;;6136048;23;20391;-72
2022/01/21 08:09:10;;;;;;;7.20;1.73;;;3.00;93.00;;;;;;6160479;23;20024;-73
2022/01/21 08:11:36;;;;;;;7.53;2.00;;;3.00;93.00;;;;;;6187046;23;20386;-73
2022/01/21 08:14:02;;;;;;;7.43;3.00;;;3.10;93.00;;;;;;6160242;23;20020;-72
2022/01/21 08:16:27;;;;;;;6.72;1.40;;;3.10;93.00;;;;;;6187080;23;20040;-73
2022/01/21 08:18:54;;;;;;;6.72;1.63;;;3.10;93.00;;;;;;6160601;23;20009;-72
2022/01/21 08:21:20;;;;;;;9.57;1.80;;;3.10;93.10;;;;;;6135934;23;20305;-72
2022/01/21 08:23:50;;;;;;;7.78;2.15;;;3.10;93.10;;;;;;6136170;23;20069;-73
2022/01/21 08:26:18;;;;;;;11.38;2.33;;;3.10;93.10;;;;;;6161011;23;20017;-74
2022/01/21 08:28:43;;;;;;;12.20;1.90;;;3.20;93.10;;;;;;6160678;23;20013;-72
2022/01/21 08:31:09;;;;;;;9.60;2.00;;;3.20;93.10;;;;;;6186379;23;20013;-73
2022/01/21 08:33:35;;;;;;;10.20;2.15;;;3.20;93.10;;;;;;6160187;23;20012;-73
2022/01/21 08:36:00;;;;;;;9.25;1.92;;;3.20;93.10;;;;;;6184940;23;20051;-72
2022/01/21 08:38:26;;;;;;;9.77;2.35;;;3.20;93.10;;;;;;6186834;23;20063;-73
2022/01/21 08:40:52;;;;;;;7.20;2.17;;;3.20;93.10;;;;;;6160545;23;20095;-73
2022/01/21 08:43:17;;;;;;;10.50;2.35;;;3.30;93.10;;;;;;6135510;23;20024;-73
2022/01/21 08:45:43;;;;;;;10.35;2.42;;;3.30;93.10;;;;;;6160194;23;20015;-74
2022/01/21 08:48:10;;;;;;;11.57;2.47;;;3.30;93.10;;;;;;6159565;23;20049;-73
2022/01/21 08:50:36;;;;;;;8.07;2.72;;;3.30;93.10;;;;;;6160307;23;20375;-72
2022/01/21 08:55:54;;;;;;;10.10;2.10;;;3.40;93.10;;;;;;6121340;23;20071;-72
2022/01/21 08:58:19;;;;;;;12.30;2.85;;;3.40;93.10;;;;;;6135513;23;20013;-73
2022/01/21 09:00:45;;;;;;;7.75;2.83;;;3.40;93.10;;;;;;6135665;23;20297;-73
2022/01/21 09:03:11;;;;;;;9.40;2.58;;;3.40;93.10;;;;;;6159493;23;20027;-73
2022/01/21 09:05:55;;;;;;;6.65;2.25;;;3.40;93.10;;;;;;6160232;23;20088;-73
2022/01/21 09:08:23;;;;;;;12.48;2.88;;;3.50;93.10;;;;;;6159539;23;20454;-73
2022/01/21 09:10:55;;;;;;;10.50;2.42;;;3.50;93.10;;;;;;6160514;23;20021;-74
2022/01/21 09:13:23;;;;;;;9.38;2.17;;;3.50;93.10;;;;;;6160141;23;20092;-72
2022/01/21 09:15:49;;;;;;;10.70;2.85;;;3.60;93.20;;;;;;6160310;23;20013;-74
2022/01/21 09:18:19;;;;;;;10.13;2.35;;;3.60;93.20;;;;;;6135434;23;20012;-73
2022/01/21 09:20:44;;;;;;;14.27;2.75;;;3.70;93.20;;;;;;6159819;23;20017;-73
2022/01/21 09:23:10;;;;;;;15.13;2.42;;;3.70;93.20;;;;;;6159830;23;20024;-73
2022/01/21 09:25:36;;;;;;;10.07;1.67;;;3.80;93.20;;;;;;6184577;23;20017;-73
2022/01/21 09:28:02;;;;;;;12.35;3.75;;;3.80;93.20;;;;;;6135407;23;20349;-73
2022/01/21 09:30:28;;;;;;;11.00;2.50;;;3.80;93.20;;;;;;6110878;23;20072;-75
2022/01/21 09:32:54;;;;;;;12.23;2.72;;;3.90;93.30;;;;;;6186432;23;20021;-73
2022/01/21 09:35:19;;;;;;;10.75;2.78;;;4.00;93.30;;;;;;6159611;23;20443;-73
2022/01/21 09:37:45;;;;;;;8.60;2.33;;;4.10;93.30;;;;;;6160011;23;20040;-73
2022/01/21 09:40:11;;;;;;;12.15;2.53;;;4.10;93.20;;;;;;6159717;23;20017;-73
2022/01/21 09:42:37;;;;;;;12.15;2.42;;;4.10;93.20;;;;;;6186065;23;20084;-73
2022/01/21 09:45:09;;;;;;;10.40;2.22;;;4.10;93.20;;;;;;6186219;23;20056;-73
2022/01/21 09:47:46;;;;;;;10.70;2.40;;;4.20;93.30;;;;;;6135480;23;20013;-73
2022/01/21 09:50:16;;;;;;;8.43;2.92;;;4.20;93.30;;;;;;6185840;23;20375;-73
2022/01/21 09:53:00;;;;;;;8.48;2.13;;;4.30;93.30;;;;;;6110815;23;20013;-73
2022/01/21 09:55:26;;;;;;;7.43;2.58;;;4.30;93.30;;;;;;6159367;23;20017;-73
2022/01/21 09:57:53;;;;;;;9.77;3.25;;;4.30;93.30;;;;;;6160278;23;20023;-74
2022/01/21 10:00:21;;;;;;;7.43;2.17;;;4.40;93.30;;;;;;6159839;23;20009;-73
2022/01/21 10:02:48;;;;;;;9.80;1.95;;;4.40;93.30;;;;;;6135374;23;20108;-73
2022/01/21 10:05:14;;;;;;;8.05;2.00;;;4.50;93.40;;;;;;6158553;23;20040;-73
2022/01/21 10:07:41;;;;;;;12.40;2.25;;;4.50;93.40;;;;;;6159604;23;20017;-74
2022/01/21 10:10:08;;;;;;;9.27;2.10;;;4.50;93.40;;;;;;6159722;23;20013;-73
2022/01/21 10:12:39;;;;;;;10.55;2.10;;;4.60;93.40;;;;;;6159775;23;20013;-73
2022/01/21 10:15:06;;;;;;;8.18;1.98;;;4.70;93.40;;;;;;6160362;23;20026;-73
2022/01/21 10:17:31;;;;;;;12.00;2.40;;;4.80;93.40;;;;;;6134486;23;20180;-75
2022/01/21 10:20:12;;;;;;;12.15;2.55;;;4.80;93.40;;;;;;6159666;23;20055;-74
2022/01/21 10:22:38;;;;;;;12.38;2.22;;;4.90;93.50;;;;;;6159757;23;20012;-73
2022/01/21 10:25:06;;;;;;;9.82;2.58;;;4.90;93.50;;;;;;6134970;23;20374;-73
2022/01/21 10:27:35;;;;;;;8.68;1.95;;;5.00;93.50;;;;;;6184228;23;20020;-74
2022/01/21 10:30:01;;;;;;;8.73;2.58;;;5.00;93.50;;;;;;6135429;23;20024;-74
2022/01/21 10:32:37;;;;;;;11.60;2.13;;;5.10;93.50;;;;;;6159152;23;20013;-73
2022/01/21 10:35:04;;;;;;;10.57;2.47;;;5.20;93.50;;;;;;6159714;23;20104;-74
2022/01/21 10:37:36;;;;;;;9.35;2.15;;;5.30;93.50;;;;;;6159617;23;20075;-73
2022/01/21 10:40:10;;;;;;;10.77;2.57;;;5.40;93.40;;;;;;6160500;23;20064;-74
2022/01/21 10:42:41;;;;;;;12.63;3.38;;;5.50;93.40;;;;;;6185830;23;20079;-73
2022/01/21 10:45:08;;;;;;;10.85;2.72;;;5.60;93.30;;;;;;6185295;23;20032;-74
2022/01/21 10:47:36;;;;;;;12.77;2.78;;;5.70;93.20;;;;;;6134271;23;20387;-74
2022/01/21 10:50:11;;;;;;;13.70;4.15;;;5.80;93.20;;;;;;6135136;23;20075;-74
2022/01/21 10:52:38;;;;;;;10.55;3.47;;;6.00;93.20;;;;;;6159185;23;20132;-74
2022/01/21 10:55:25;;;;;;;11.07;4.40;;;6.10;93.10;;;;;;6185795;23;20309;-73
2022/01/21 10:58:14;;;;;;;16.15;3.75;;;6.10;93.10;;;;;;6123652;23;20068;-73
2022/01/21 11:00:59;;;;;;;17.17;4.47;;;6.30;93.00;;;;;;6158937;23;20048;-73
2022/01/21 11:03:28;;;;;;;12.48;4.15;;;6.40;93.00;;;;;;6134599;23;20323;-74
2022/01/21 11:06:15;;;;;;;14.10;4.47;;;6.50;92.90;;;;;;6159758;23;20013;-73
2022/01/21 11:08:41;;;;;;;16.80;5.30;;;6.50;92.90;;;;;;6158734;23;20071;-73
2022/01/21 11:11:06;;;;;;;13.52;4.18;;;6.60;92.80;;;;;;6159033;23;20017;-74
2022/01/21 11:13:36;;;;;;;13.68;5.05;;;6.60;92.80;;;;;;6133952;23;20088;-73
2022/01/21 11:16:24;;;;;;;16.15;4.85;;;6.60;92.80;;;;;;6185572;23;20328;-73
2022/01/21 11:19:10;;;;;;;14.88;4.60;;;6.70;92.90;;;;;;6159657;23;20120;-74
2022/01/21 11:21:49;;;;;;;14.75;5.53;;;6.70;92.90;;;;;;6183298;23;20093;-74
2022/01/21 11:24:15;;;;;;;19.08;4.93;;;6.80;92.90;;;;;;6185328;23;20083;-74
2022/01/21 11:26:41;;;;;;;18.85;5.10;;;6.90;92.90;;;;;;6134023;23;20273;-73
2022/01/21 11:29:07;;;;;;;16.83;4.22;;;6.90;92.80;;;;;;6185144;23;20013;-74
2022/01/21 11:31:33;;;;;;;15.60;4.70;;;7.10;92.80;;;;;;6158658;23;20320;-74
2022/01/21 11:33:59;;;;;;;15.63;5.10;;;7.10;92.80;;;;;;6134459;23;20017;-73
2022/01/21 11:36:25;;;;;;;12.43;4.35;;;7.10;92.70;;;;;;6157994;23;20013;-74
2022/01/21 11:38:53;;;;;;;13.98;4.47;;;7.20;92.80;;;;;;6158773;23;20013;-73
2022/01/21 11:41:19;;;;;;;14.77;4.30;;;7.10;92.80;;;;;;6134539;23;20020;-73
2022/01/21 11:43:50;;;;;;;13.05;4.10;;;7.20;92.80;;;;;;6157690;23;20266;-75
2022/01/21 11:46:46;;;;;;;;;;;7.20;92.80;;;;;;6159848;23;20024;-75
2022/01/21 11:49:19;;;;;;;10.70;3.38;;;7.20;92.80;;;;;;6184089;23;19962;-76
2022/01/21 11:51:44;;;;;;;13.30;3.30;;;7.20;92.90;;;;;;6157952;23;20017;-73
2022/01/21 11:54:15;;;;;;;15.98;3.63;;;7.20;93.00;;;;;;6157979;23;20091;-75
2022/01/21 11:56:57;;;;;;;13.73;3.60;;;7.30;93.10;;;;;;6158130;23;20053;-73
2022/01/21 12:02:21;;;;;;;9.73;2.90;;;7.30;92.90;;;;;;6184288;23;20398;-74
2022/01/21 12:05:05;;;;;;;10.85;3.25;;;7.30;92.90;;;;;;6184205;23;20028;-75
2022/01/21 12:07:44;;;;;;;11.80;4.13;;;7.30;93.00;;;;;;6184513;23;20018;-73
2022/01/21 12:10:15;;;;;;;13.52;3.45;;;7.30;93.00;;;;;;6182952;23;20101;-72
2022/01/21 12:21:30;;;;;;;11.40;2.28;;;7.40;93.00;;;;;;6169943;23;20262;-77
2022/01/21 12:23:56;;;;;;;9.23;2.20;;;7.40;93.00;;;;;;6157416;23;20017;-79
2022/01/21 12:26:29;;;;;;;10.10;2.10;;;7.40;93.00;;;;;;6133264;23;20024;-76
2022/01/21 12:28:57;;;;;;;10.25;2.60;;;7.50;93.10;;;;;;6134156;23;20021;-73
2022/01/21 12:31:25;;;;;;;9.95;2.15;;;7.50;93.10;;;;;;6160116;23;20017;-75
2022/01/21 12:36:25;;;;;;;9.88;2.15;;;7.50;93.00;;;;;;6186681;23;20047;-75
2022/01/21 12:41:16;;;;;;;11.40;2.50;;;7.60;93.00;;;;;;6160234;23;20028;-72
2022/01/21 12:43:42;;;;;;;11.40;2.55;;;7.60;92.90;;;;;;6185149;23;20017;-73
2022/01/21 12:46:31;;;;;;;11.18;3.00;;;7.70;92.90;;;;;;6160269;23;20029;-73
2022/01/21 12:48:58;;;;;;;12.63;2.53;;;7.70;92.80;;;;;;6185591;23;20024;-73
2022/01/21 12:56:43;;;;;;;9.02;2.50;;;7.90;92.70;;;;;;6165044;23;20067;-74
2022/01/21 12:59:16;;;;;;;9.00;1.90;;;7.90;92.70;;;;;;6159833;23;20021;-73
2022/01/21 13:01:42;;;;;;;9.75;2.63;;;7.90;92.60;;;;;;6111583;23;20075;-73
2022/01/21 13:04:26;;;;;;;10.98;2.50;;;7.90;92.60;;;;;;6135369;23;20096;-73
2022/01/21 13:06:59;;;;;;;11.18;2.00;;;7.90;92.60;;;;;;6159858;23;20036;-75
2022/01/21 13:09:39;;;;;;;8.55;2.17;;;7.90;92.60;;;;;;6135549;23;20059;-74
2022/01/21 13:12:11;;;;;;;7.47;1.50;;;7.90;92.50;;;;;;6135383;23;20013;-73
2022/01/21 13:14:43;;;;;;;10.15;2.10;;;7.90;92.50;;;;;;6135920;23;20105;-75
2022/01/21 13:17:18;;;;;;;13.35;3.10;;;7.90;92.50;;;;;;6184873;23;20075;-72
2022/01/21 13:19:54;;;;;;;10.55;2.22;;;7.80;92.50;;;;;;6185789;23;20020;-73
2022/01/21 13:22:25;;;;;;;8.15;1.83;;;7.80;92.50;;;;;;6160156;23;20017;-74
2022/01/21 13:25:15;;;;;;;9.43;2.28;;;7.80;92.50;;;;;;6135072;23;20017;-73
2022/01/21 13:27:54;;;;;;;7.40;2.50;;;7.90;92.50;;;;;;6163804;23;20080;-73
2022/01/21 13:30:23;;;;;;;9.73;2.42;;;7.90;92.50;;;;;;6186004;23;20021;-73
2022/01/21 13:32:57;;;;;;;11.38;2.42;;;7.90;92.50;;;;;;6159643;23;20025;-74
2022/01/21 13:35:24;;;;;;;10.27;2.50;;;7.90;92.50;;;;;;6158651;23;20159;-73
2022/01/21 13:38:02;;;;;;;8.77;2.22;;;7.90;92.50;;;;;;6184042;23;20032;-74
2022/01/21 13:40:30;;;;;;;14.27;2.78;;;7.90;92.40;;;;;;6185499;23;20084;-73
2022/01/21 13:43:26;;;;;;;13.07;2.67;;;7.90;92.50;;;;;;6185651;23;20336;-74
2022/01/21 13:45:59;;;;;;;9.45;2.33;;;7.80;92.40;;;;;;6111195;23;20028;-73
2022/01/21 13:51:10;;;;;;;13.65;2.92;;;7.80;92.40;;;;;;6159379;23;20021;-73
2022/01/21 13:53:41;;;;;;;9.70;2.88;;;7.80;92.40;;;;;;6135591;23;20331;-73
2022/01/21 13:56:08;;;;;;;18.60;3.40;;;7.80;92.40;;;;;;6136450;23;20308;-73
2022/01/21 13:58:35;;;;;;;13.80;3.15;;;7.80;92.40;;;;;;6186085;23;20021;-73
2022/01/21 14:01:08;;;;;;;12.38;3.28;;;7.80;92.40;;;;;;6185621;23;20368;-73
2022/01/21 14:03:34;;;;;;;;;;;7.80;92.40;;;;;;6186415;23;20024;-73
2022/01/21 14:06:04;;;;;;;9.73;2.75;;;7.70;92.30;;;;;;6159139;23;19922;-73
2022/01/21 14:08:31;;;;;;;14.38;3.65;;;7.70;92.50;;;;;;6159352;23;20075;-73
2022/01/21 14:10:59;;;;;;;10.45;2.85;;;7.80;92.50;;;;;;6134528;23;20020;-73
2022/01/21 14:13:29;;;;;;;12.68;3.17;;;7.80;92.40;;;;;;6159850;23;20435;-74